createdAt,value
2024-03-05T00:00:13.617Z,99937.91
2024-03-05T00:02:41.770Z,99939.69
2024-03-05T00:05:10.459Z,99937.09
2024-03-05T00:07:39.056Z,99935.34
2024-03-05T00:10:09.475Z,99943.34
2024-03-05T00:12:38.576Z,99939.75
2024-03-05T00:15:07.496Z,99937.97
2024-03-05T00:17:38.567Z,99943.28
2024-03-05T00:20:13.062Z,99937.16
2024-03-05T00:22:43.049Z,99939.81
2024-03-05T00:25:12.369Z,99935.47
2024-03-05T00:27:40.901Z,99946.00
2024-03-05T00:30:10.844Z,99949.56
2024-03-05T00:32:40.463Z,99946.03
2024-03-05T00:35:10.258Z,99939.00
2024-03-05T00:37:39.036Z,99939.94
2024-03-05T00:40:10.011Z,99945.13
2024-03-05T00:42:38.656Z,99944.31
2024-03-05T00:45:08.841Z,99943.44
2024-03-05T00:47:37.908Z,99954.09
2024-03-05T00:50:08.812Z,99957.72
2024-03-05T00:52:37.175Z,99953.34
2024-03-05T00:55:08.890Z,99952.47
2024-03-05T00:57:37.654Z,99955.13
2024-03-05T01:00:06.874Z,99951.66
2024-03-05T01:02:35.815Z,99954.31
2024-03-05T01:05:06.638Z,99955.19
2024-03-05T01:07:36.539Z,99955.19
2024-03-05T01:10:06.840Z,99952.56
2024-03-05T01:12:34.974Z,99950.91
2024-03-05T01:15:03.106Z,99953.38
2024-03-05T01:17:31.478Z,99953.44
2024-03-05T01:19:59.592Z,99953.44
2024-03-05T01:22:27.973Z,99953.50
2024-03-05T01:24:57.469Z,99950.84
2024-03-05T01:27:25.782Z,99949.97
2024-03-05T01:29:54.036Z,99950.13
2024-03-05T01:32:22.079Z,99951.06
2024-03-05T01:34:50.181Z,99939.56
2024-03-05T01:37:18.501Z,99940.38
2024-03-05T01:39:46.540Z,99941.28
2024-03-05T01:42:16.345Z,99936.94
2024-03-05T01:44:44.693Z,99939.56
2024-03-05T01:47:13.245Z,99935.16
2024-03-05T01:49:41.953Z,99929.91
2024-03-05T01:52:10.453Z,99933.44
2024-03-05T01:54:38.627Z,99930.72
2024-03-05T01:57:06.875Z,99921.88
2024-03-05T01:59:36.473Z,99926.16
2024-03-05T02:02:05.896Z,99926.06
2024-03-05T02:04:34.923Z,99921.53
2024-03-05T02:07:04.522Z,99924.09
2024-03-05T02:09:32.831Z,99935.63
2024-03-05T02:12:04.018Z,99930.38
2024-03-05T02:14:33.664Z,99931.38
2024-03-05T02:17:03.462Z,99935.88
2024-03-05T02:19:31.931Z,99931.53
2024-03-05T02:22:04.131Z,99939.50
2024-03-05T02:24:32.808Z,99938.75
2024-03-05T02:27:02.929Z,99931.78
2024-03-05T02:29:32.314Z,99934.50
2024-03-05T02:32:00.561Z,99930.19
2024-03-05T02:34:28.882Z,99924.03
2024-03-05T02:36:58.874Z,99918.84
2024-03-05T02:39:28.791Z,99931.25
2024-03-05T02:41:56.876Z,99929.50
2024-03-05T02:44:28.005Z,99924.22
2024-03-05T02:46:56.287Z,99923.44
2024-03-05T02:49:24.426Z,99932.31
2024-03-05T02:51:52.974Z,99935.84
2024-03-05T02:54:21.737Z,99932.38
2024-03-05T02:56:51.409Z,99936.84
2024-03-05T02:59:19.613Z,99933.31
2024-03-05T03:01:48.948Z,99928.03
2024-03-05T03:04:17.560Z,99938.69
2024-03-05T03:06:45.802Z,99934.28
2024-03-05T03:09:13.950Z,99943.13
2024-03-05T03:11:43.277Z,99940.53
2024-03-05T03:14:13.138Z,99947.59
2024-03-05T03:16:44.784Z,99942.34
2024-03-05T03:19:13.463Z,99937.09
2024-03-05T03:21:42.413Z,99948.59
2024-03-05T03:24:13.472Z,99956.50
2024-03-05T03:26:41.754Z,99953.00
2024-03-05T03:29:12.615Z,99954.84
2024-03-05T03:31:46.956Z,99956.56
2024-03-05T03:34:17.425Z,99956.56
2024-03-05T03:36:45.898Z,99955.66
2024-03-05T03:39:24.847Z,99959.19
2024-03-05T03:41:56.134Z,99953.88
2024-03-05T03:44:24.835Z,99957.38
2024-03-05T03:46:54.717Z,99947.66
2024-03-05T03:49:25.465Z,99949.38
2024-03-05T03:53:42.118Z,99953.88
2024-03-05T03:56:10.594Z,99945.81
2024-03-05T03:58:38.709Z,99958.13
2024-03-05T04:01:08.689Z,99948.44
2024-03-05T04:03:37.503Z,99956.38
2024-03-05T04:06:06.165Z,99962.53
2024-03-05T04:08:34.863Z,99962.53
2024-03-05T04:11:05.066Z,99964.25
2024-03-05T04:13:34.222Z,99962.50
2024-03-05T04:16:05.727Z,99967.78
2024-03-05T04:18:33.923Z,99967.72
2024-03-05T04:21:02.723Z,99969.38
2024-03-05T04:23:30.941Z,99973.78
2024-03-05T04:26:03.336Z,99972.00
2024-03-05T04:28:37.554Z,99970.19
2024-03-05T04:31:09.269Z,99976.38
2024-03-05T04:33:38.773Z,99973.72
2024-03-05T04:36:10.473Z,99972.78
2024-03-05T04:38:39.634Z,99976.31
2024-03-05T04:41:08.258Z,99976.31
2024-03-05T04:43:39.182Z,99984.19
2024-03-05T04:46:07.599Z,99977.13
2024-03-05T04:48:35.646Z,99978.88
2024-03-05T04:51:03.818Z,99978.78
2024-03-05T04:53:31.851Z,99982.31
2024-03-05T04:55:59.965Z,99980.50
2024-03-05T04:58:29.078Z,99978.78
2024-03-05T05:00:58.544Z,99975.28
2024-03-05T05:03:27.658Z,99974.41
2024-03-05T05:05:58.492Z,99982.38
2024-03-05T05:08:26.740Z,99987.69
2024-03-05T05:10:55.059Z,99975.28
2024-03-05T05:13:23.590Z,99975.22
2024-03-05T05:15:51.722Z,99981.38
2024-03-05T05:18:21.348Z,99982.22
2024-03-05T05:20:51.973Z,99977.88
2024-03-05T05:23:20.094Z,99981.41
2024-03-05T05:25:48.690Z,99971.78
2024-03-05T05:28:17.060Z,99974.50
2024-03-05T05:30:45.210Z,99978.06
2024-03-05T05:33:13.431Z,99973.63
2024-03-05T05:35:42.850Z,99982.56
2024-03-05T05:38:11.156Z,99976.38
2024-03-05T05:40:39.393Z,99970.19
2024-03-05T05:43:09.340Z,99974.59
2024-03-05T05:45:37.829Z,99969.34
2024-03-05T05:48:07.058Z,99972.84
2024-03-05T05:50:35.290Z,99976.38
2024-03-05T05:53:06.825Z,99976.38
2024-03-05T05:55:36.139Z,99971.06
2024-03-05T05:58:05.530Z,99976.38
2024-03-05T06:00:35.162Z,99974.59
2024-03-05T06:03:08.102Z,99976.38
2024-03-05T06:05:37.484Z,99973.66
2024-03-05T06:08:12.633Z,99984.25
2024-03-05T06:10:43.101Z,99983.31
2024-03-05T06:13:11.774Z,99985.03
2024-03-05T06:15:40.387Z,99985.06
2024-03-05T06:18:08.849Z,99987.59
2024-03-05T06:20:37.475Z,99992.91
2024-03-05T06:23:07.375Z,99989.31
2024-03-05T06:25:36.019Z,99992.78
2024-03-05T06:28:04.465Z,99993.69
2024-03-05T06:30:32.688Z,99988.47
2024-03-05T06:33:00.800Z,99999.81
2024-03-05T06:35:30.683Z,100006.88
2024-03-05T06:38:01.983Z,100008.66
2024-03-05T06:40:32.532Z,100015.66
2024-03-05T06:43:06.645Z,100006.75
2024-03-05T06:45:36.664Z,100018.19
2024-03-05T06:48:16.181Z,100016.53
2024-03-05T06:50:53.583Z,100008.53
2024-03-05T06:53:41.643Z,100015.56
2024-03-05T06:56:29.700Z,100014.59
2024-03-05T06:58:59.446Z,100011.88
2024-03-05T07:01:34.012Z,100022.34
2024-03-05T07:04:06.890Z,100016.09
2024-03-05T07:06:35.877Z,100018.66
2024-03-05T07:09:04.531Z,100020.28
2024-03-05T07:11:35.555Z,100013.22
2024-03-05T07:14:04.043Z,100020.19
2024-03-05T07:16:33.552Z,100013.91
2024-03-05T07:19:02.731Z,100015.56
2024-03-05T07:21:31.802Z,100032.34
2024-03-05T07:24:00.325Z,100026.09
2024-03-05T07:26:30.113Z,100027.91
2024-03-05T07:28:59.747Z,100023.41
2024-03-05T07:31:29.815Z,100024.28
2024-03-05T07:33:59.361Z,100025.13
2024-03-05T07:36:27.483Z,100027.69
2024-03-05T07:38:55.571Z,100032.84
2024-03-05T07:41:30.125Z,100033.75
2024-03-05T07:44:05.609Z,100035.47
2024-03-05T07:46:35.571Z,100038.13
2024-03-05T07:49:05.137Z,100036.25
2024-03-05T07:51:40.995Z,100039.53
2024-03-05T07:54:15.044Z,100047.34
2024-03-05T07:56:44.277Z,100045.50
2024-03-05T07:59:14.837Z,100052.28
2024-03-05T08:01:43.325Z,100053.81
2024-03-05T08:04:11.911Z,100050.16
2024-03-05T08:06:40.430Z,100051.81
2024-03-05T08:09:09.148Z,100056.56
2024-03-05T08:11:37.457Z,100053.81
2024-03-05T08:14:09.084Z,100054.94
2024-03-05T08:16:40.119Z,100058.34
2024-03-05T08:19:09.331Z,100060.19
2024-03-05T08:21:37.709Z,100066.59
2024-03-05T08:24:07.495Z,100067.41
2024-03-05T08:26:36.062Z,100066.34
2024-03-05T08:29:04.845Z,100063.88
2024-03-05T08:31:33.181Z,100068.28
2024-03-05T08:34:05.851Z,100065.41
2024-03-05T08:36:37.694Z,100057.16
2024-03-05T08:39:17.013Z,100067.78
2024-03-05T08:41:47.982Z,100068.38
2024-03-05T08:44:17.140Z,100068.00
2024-03-05T08:46:45.422Z,100068.88
2024-03-05T08:49:14.925Z,100062.69
2024-03-05T08:54:36.666Z,100067.00
2024-03-05T08:57:06.394Z,100075.81
2024-03-05T08:59:35.425Z,100068.88
2024-03-05T09:02:05.920Z,100069.66
2024-03-05T09:04:34.135Z,100076.75
2024-03-05T09:07:03.554Z,100071.34
2024-03-05T09:09:31.746Z,100071.22
2024-03-05T09:12:01.348Z,100074.94
2024-03-05T09:14:29.389Z,100080.06
2024-03-05T09:16:57.704Z,100079.31
2024-03-05T09:19:25.929Z,100075.81
2024-03-05T09:21:54.018Z,100075.72
2024-03-05T09:24:22.517Z,100078.59
2024-03-05T09:26:51.249Z,100079.34
2024-03-05T09:29:20.727Z,100084.63
2024-03-05T09:31:49.036Z,100082.72
2024-03-05T09:34:17.245Z,100083.75
2024-03-05T09:36:45.402Z,100088.19
2024-03-05T09:39:15.206Z,100079.41
2024-03-05T09:41:44.509Z,100088.22
2024-03-05T09:44:13.287Z,100092.63
2024-03-05T09:46:47.152Z,100088.19
2024-03-05T09:49:22.680Z,100094.47
2024-03-05T09:51:54.503Z,100098.97
2024-03-05T09:54:22.684Z,100095.34
2024-03-05T09:56:55.017Z,100101.41
2024-03-05T09:59:23.213Z,100103.25
2024-03-05T10:01:52.732Z,100106.56
2024-03-05T10:04:27.642Z,100110.25
2024-03-05T10:06:55.867Z,100113.75
2024-03-05T10:09:26.006Z,100120.91
2024-03-05T10:11:54.925Z,100117.59
2024-03-05T10:14:25.326Z,100114.72
2024-03-05T10:17:02.513Z,100114.56
2024-03-05T10:19:43.955Z,100109.06
2024-03-05T10:22:13.226Z,100111.66
2024-03-05T10:24:41.404Z,100119.41
2024-03-05T10:27:12.902Z,100122.13
2024-03-05T10:29:42.111Z,100118.25
2024-03-05T10:32:13.095Z,100113.59
2024-03-05T10:34:44.788Z,100120.66
2024-03-05T10:37:12.956Z,100115.19
2024-03-05T10:39:42.934Z,100119.38
2024-03-05T10:42:12.948Z,100128.09
2024-03-05T10:44:41.240Z,100130.00
2024-03-05T10:47:11.207Z,100130.84
2024-03-05T10:49:40.604Z,100137.34
2024-03-05T10:52:10.292Z,100138.41
2024-03-05T10:54:39.476Z,100132.22
2024-03-05T10:57:08.086Z,100144.53
2024-03-05T10:59:41.574Z,100138.16
2024-03-05T11:02:14.438Z,100140.16
2024-03-05T11:04:44.663Z,100146.44
2024-03-05T11:07:13.391Z,100145.66
2024-03-05T11:09:43.038Z,100141.31
2024-03-05T11:12:17.502Z,100135.53
2024-03-05T11:14:47.980Z,100141.31
2024-03-05T11:17:18.145Z,100141.81
2024-03-05T11:19:47.428Z,100138.41
2024-03-05T11:22:23.767Z,100140.28
2024-03-05T11:24:59.092Z,100143.25
2024-03-05T11:27:28.061Z,100140.53
2024-03-05T11:30:10.424Z,100145.06
2024-03-05T11:32:41.005Z,100135.53
2024-03-05T11:35:12.499Z,100135.81
2024-03-05T11:37:49.811Z,100145.56
2024-03-05T11:40:19.866Z,100143.50
2024-03-05T11:42:50.246Z,100144.34
2024-03-05T11:45:44.069Z,100141.13
2024-03-05T11:48:15.773Z,100144.06
2024-03-05T11:50:44.713Z,100151.75
2024-03-05T11:53:13.328Z,100146.81
2024-03-05T11:55:42.065Z,100158.25
2024-03-05T11:58:15.984Z,100152.81
2024-03-05T12:00:46.158Z,100149.25
2024-03-05T12:03:15.866Z,100147.50
2024-03-05T12:05:45.542Z,100145.63
2024-03-05T12:08:13.752Z,100145.19
2024-03-05T12:10:42.653Z,100136.09
2024-03-05T12:13:20.104Z,100132.78
2024-03-05T12:15:48.555Z,100135.88
2024-03-05T12:18:18.411Z,100135.78
2024-03-05T12:20:48.762Z,100143.31
2024-03-05T12:23:40.198Z,100132.44
2024-03-05T12:26:08.612Z,100129.06
2024-03-05T12:28:37.265Z,100125.94
2024-03-05T12:31:05.806Z,100131.06
2024-03-05T12:33:36.354Z,100127.88
2024-03-05T12:36:05.825Z,100125.69
2024-03-05T12:38:34.493Z,100123.28
2024-03-05T12:41:03.479Z,100127.50
2024-03-05T12:43:31.717Z,100123.59
2024-03-05T12:46:03.899Z,100124.59
2024-03-05T12:48:32.986Z,100122.03
2024-03-05T12:51:04.547Z,100127.50
2024-03-05T12:53:33.376Z,100129.44
2024-03-05T12:56:02.860Z,100126.91
2024-03-05T12:58:41.197Z,100131.22
2024-03-05T13:01:11.951Z,100130.28
2024-03-05T13:03:40.154Z,100126.69
2024-03-05T13:06:09.844Z,100127.66
2024-03-05T13:08:37.895Z,100132.13
2024-03-05T13:11:07.611Z,100130.19
2024-03-05T13:13:35.930Z,100127.69
2024-03-05T13:16:04.152Z,100123.66
2024-03-05T13:18:32.231Z,100129.00
2024-03-05T13:21:00.507Z,100127.72
2024-03-05T13:23:30.896Z,100130.69
2024-03-05T13:25:59.232Z,100129.94
2024-03-05T13:28:27.637Z,100127.63
2024-03-05T13:30:55.674Z,100137.81
2024-03-05T13:33:26.679Z,100136.63
2024-03-05T13:35:56.782Z,100142.34
2024-03-05T13:38:25.435Z,100142.53
2024-03-05T13:40:55.034Z,100143.22
2024-03-05T13:43:25.715Z,100136.78
2024-03-05T13:45:54.641Z,100136.69
2024-03-05T13:48:23.252Z,100140.53
2024-03-05T13:50:54.165Z,100137.97
2024-03-05T13:55:36.527Z,100148.13
2024-03-05T13:58:05.559Z,100140.44
2024-03-05T14:00:34.137Z,100141.81
2024-03-05T14:03:03.234Z,100145.31
2024-03-05T14:05:33.325Z,100144.56
2024-03-05T14:08:02.149Z,100147.28
2024-03-05T14:10:30.942Z,100146.69
2024-03-05T14:13:01.047Z,100148.97
2024-03-05T14:15:29.373Z,100145.88
2024-03-05T14:17:59.182Z,100146.31
2024-03-05T14:20:29.769Z,100153.69
2024-03-05T14:23:00.548Z,100149.78
2024-03-05T14:25:30.440Z,100153.41
2024-03-05T14:28:01.179Z,100147.75
2024-03-05T14:30:29.578Z,100151.50
2024-03-05T14:33:00.099Z,100146.75
2024-03-05T14:35:28.725Z,100142.72
2024-03-05T14:37:57.411Z,100145.41
2024-03-05T14:40:26.790Z,100142.13
2024-03-05T14:42:55.572Z,100141.25
2024-03-05T14:45:26.186Z,100134.81
2024-03-05T14:47:54.532Z,100145.56
2024-03-05T14:50:23.797Z,100137.13
2024-03-05T14:52:53.987Z,100131.59
2024-03-05T14:55:23.859Z,100140.66
2024-03-05T14:57:52.093Z,100132.94
2024-03-05T15:00:23.506Z,100141.59
2024-03-05T15:02:54.046Z,100147.44
2024-03-05T15:05:23.765Z,100152.28
2024-03-05T15:10:21.970Z,100150.69
2024-03-05T15:12:52.045Z,100155.34
2024-03-05T15:15:22.075Z,100154.66
2024-03-05T15:17:50.287Z,100154.06
2024-03-05T15:20:20.658Z,100151.59
2024-03-05T15:22:51.075Z,100157.22
2024-03-05T15:25:22.119Z,100153.22
2024-03-05T15:28:01.023Z,100163.25
2024-03-05T15:30:35.019Z,100159.19
2024-03-05T15:33:05.649Z,100154.56
2024-03-05T15:35:35.399Z,100152.78
2024-03-05T15:38:06.232Z,100153.38
2024-03-05T15:40:35.127Z,100154.75
2024-03-05T15:43:07.399Z,100162.66
2024-03-05T15:45:38.406Z,100151.03
2024-03-05T15:48:10.931Z,100147.56
2024-03-05T15:50:42.869Z,100153.16
2024-03-05T15:53:11.591Z,100153.19
2024-03-05T15:55:44.043Z,100150.53
2024-03-05T15:58:20.639Z,100157.81
2024-03-05T16:00:49.507Z,100162.88
2024-03-05T16:03:18.489Z,100157.81
2024-03-05T16:05:59.724Z,100168.47
2024-03-05T16:08:32.555Z,100162.31
2024-03-05T16:11:01.620Z,100167.66
2024-03-05T16:13:31.402Z,100165.81
2024-03-05T16:16:00.209Z,100167.56
2024-03-05T16:18:28.350Z,100172.78
2024-03-05T16:21:02.727Z,100169.28
2024-03-05T16:23:30.865Z,100171.03
2024-03-05T16:25:59.276Z,100172.38
2024-03-05T16:28:27.618Z,100170.97
2024-03-05T16:30:56.182Z,100167.81
2024-03-05T16:33:26.074Z,100168.66
2024-03-05T16:35:54.567Z,100173.13
2024-03-05T16:38:24.357Z,100170.44
2024-03-05T16:40:54.012Z,100172.53
2024-03-05T16:43:22.330Z,100165.88
2024-03-05T16:45:50.425Z,100173.50
2024-03-05T16:48:18.542Z,100176.69
2024-03-05T16:50:46.798Z,100186.88
2024-03-05T16:53:16.186Z,100181.88
2024-03-05T16:55:45.821Z,100189.19
2024-03-05T16:58:16.655Z,100196.50
2024-03-05T17:00:53.485Z,100191.34
2024-03-05T17:03:23.255Z,100199.53
2024-03-05T17:05:54.325Z,100199.63
2024-03-05T17:08:24.859Z,100202.50
2024-03-05T17:10:58.218Z,100203.53
2024-03-05T17:13:28.387Z,100205.38
2024-03-05T17:16:00.255Z,100209.06
2024-03-05T17:18:32.236Z,100218.91
2024-03-05T17:21:00.816Z,100205.88
2024-03-05T17:23:30.515Z,100210.44
2024-03-05T17:26:00.743Z,100219.44
2024-03-05T17:28:29.542Z,100223.13
2024-03-05T17:31:00.548Z,100214.47
2024-03-05T17:33:29.539Z,100227.66
2024-03-05T17:35:58.577Z,100229.41
2024-03-05T17:38:31.577Z,100230.47
2024-03-05T17:41:21.295Z,100234.13
2024-03-05T17:43:49.876Z,100230.84
2024-03-05T17:46:18.107Z,100238.13
2024-03-05T17:48:47.114Z,100231.34
2024-03-05T17:51:15.537Z,100237.78
2024-03-05T17:53:45.290Z,100243.06
2024-03-05T17:56:13.751Z,100232.81
2024-03-05T17:58:44.061Z,100244.41
2024-03-05T18:01:13.072Z,100243.44
2024-03-05T18:03:45.273Z,100250.50
2024-03-05T18:06:17.318Z,100253.22
2024-03-05T18:08:47.754Z,100246.41
2024-03-05T18:11:17.148Z,100253.56
2024-03-05T18:13:48.199Z,100254.59
2024-03-05T18:16:17.139Z,100255.69
2024-03-05T18:18:45.819Z,100258.34
2024-03-05T18:21:15.994Z,100254.09
2024-03-05T18:23:44.989Z,100260.22
2024-03-05T18:26:14.549Z,100260.25
2024-03-05T18:28:44.510Z,100254.13
2024-03-05T18:31:17.431Z,100253.44
2024-03-05T18:33:47.066Z,100257.06
2024-03-05T18:36:16.971Z,100258.88
2024-03-05T18:38:48.769Z,100260.59
2024-03-05T18:41:18.801Z,100274.53
2024-03-05T18:43:47.310Z,100272.00
2024-03-05T18:46:17.061Z,100275.63
2024-03-05T18:48:45.457Z,100271.38
2024-03-05T18:51:15.283Z,100268.00
2024-03-05T18:56:38.904Z,100276.19
2024-03-05T18:59:08.730Z,100272.72
2024-03-05T19:01:38.125Z,100273.75
2024-03-05T19:04:06.984Z,100278.28
2024-03-05T19:06:38.208Z,100281.75
2024-03-05T19:09:10.000Z,100279.19
2024-03-05T19:11:40.810Z,100282.69
2024-03-05T19:14:09.862Z,100272.28
2024-03-05T19:16:38.292Z,100279.22
2024-03-05T19:19:06.729Z,100280.06
2024-03-05T19:21:35.351Z,100279.13
2024-03-05T19:24:03.589Z,100284.44
2024-03-05T19:26:32.256Z,100275.59
2024-03-05T19:29:01.935Z,100280.91
2024-03-05T19:31:30.232Z,100278.41
2024-03-05T19:33:59.688Z,100279.38
2024-03-05T19:36:31.113Z,100280.31
2024-03-05T19:39:00.540Z,100280.31
2024-03-05T19:41:28.906Z,100282.81
2024-03-05T19:43:59.949Z,100281.97
2024-03-05T19:46:30.723Z,100285.47
2024-03-05T19:49:00.664Z,100288.13
2024-03-05T19:51:29.900Z,100292.44
2024-03-05T19:54:00.693Z,100296.81
2024-03-05T19:56:29.337Z,100284.44
2024-03-05T19:58:57.670Z,100290.59
2024-03-05T20:01:26.396Z,100303.84
2024-03-05T20:03:57.839Z,100303.00
2024-03-05T20:06:26.816Z,100301.25
2024-03-05T20:08:57.942Z,100302.97
2024-03-05T20:11:27.458Z,100297.63
2024-03-05T20:13:55.896Z,100297.56
2024-03-05T20:16:25.283Z,100305.41
2024-03-05T20:18:55.289Z,100294.75
2024-03-05T20:21:25.527Z,100296.53
2024-03-05T20:23:54.118Z,100297.38
2024-03-05T20:26:22.334Z,100307.06
2024-03-05T20:28:53.732Z,100306.13
2024-03-05T20:31:22.920Z,100305.25
2024-03-05T20:33:51.662Z,100306.13
2024-03-05T20:36:24.040Z,100305.25
2024-03-05T20:38:54.015Z,100312.31
2024-03-05T20:41:22.303Z,100308.78
2024-03-05T20:43:51.296Z,100315.88
2024-03-05T20:46:20.403Z,100320.31
2024-03-05T20:48:48.743Z,100310.63
2024-03-05T20:51:17.526Z,100305.28
2024-03-05T20:53:47.510Z,100315.94
2024-03-05T20:56:16.565Z,100307.19
2024-03-05T20:58:45.228Z,100307.22
2024-03-05T21:01:13.778Z,100315.19
2024-03-05T21:03:41.968Z,100308.16
2024-03-05T21:06:11.542Z,100312.59
2024-03-05T21:08:40.524Z,100311.78
2024-03-05T21:11:10.377Z,100312.72
2024-03-05T21:13:43.152Z,100321.53
2024-03-05T21:16:13.423Z,100316.28
2024-03-05T21:18:42.041Z,100316.25
2024-03-05T21:21:14.961Z,100316.28
2024-03-05T21:23:44.049Z,100307.50
2024-03-05T21:26:27.679Z,100314.63
2024-03-05T21:29:03.752Z,100312.97
2024-03-05T21:31:36.903Z,100323.59
2024-03-05T21:34:06.259Z,100316.59
2024-03-05T21:36:37.466Z,100318.41
2024-03-05T21:39:07.272Z,100327.22
2024-03-05T21:41:37.377Z,100330.78
2024-03-05T21:44:06.612Z,100336.06
2024-03-05T21:46:35.016Z,100339.56
2024-03-05T21:49:04.359Z,100337.81
2024-03-05T21:51:34.245Z,100343.91
2024-03-05T21:54:04.095Z,100345.59
2024-03-05T21:56:32.389Z,100349.13
2024-03-05T21:59:02.798Z,100352.69
2024-03-05T22:01:31.429Z,100346.53
2024-03-05T22:03:59.700Z,100343.06
2024-03-05T22:06:27.908Z,100356.22
2024-03-05T22:09:09.816Z,100355.28
2024-03-05T22:11:39.461Z,100363.22
2024-03-05T22:14:11.176Z,100350.91
2024-03-05T22:16:40.268Z,100355.41
2024-03-05T22:19:09.861Z,100354.59
2024-03-05T22:21:39.930Z,100349.38
2024-03-05T22:24:08.644Z,100351.19
2024-03-05T22:26:37.527Z,100358.31
2024-03-05T22:29:06.111Z,100359.25
2024-03-05T22:31:35.811Z,100354.91
2024-03-05T22:34:05.454Z,100367.19
2024-03-05T22:36:33.611Z,100361.94
2024-03-05T22:39:02.394Z,100360.19
2024-03-05T22:41:30.756Z,100360.19
2024-03-05T22:43:59.011Z,100361.13
2024-03-05T22:46:27.208Z,100366.41
2024-03-05T22:48:56.794Z,100368.19
2024-03-05T22:51:25.630Z,100379.66
2024-03-05T22:53:53.851Z,100372.59
2024-03-05T22:56:22.043Z,100380.53
2024-03-05T22:58:50.524Z,100381.44
2024-03-05T23:01:18.726Z,100384.06
2024-03-05T23:03:46.876Z,100388.41
2024-03-05T23:06:21.260Z,100386.63
2024-03-05T23:08:54.975Z,100389.25
2024-03-05T23:11:23.883Z,100394.50
2024-03-05T23:13:52.079Z,100397.13
2024-03-05T23:16:20.614Z,100390.94
2024-03-05T23:18:49.855Z,100397.97
2024-03-05T23:21:19.393Z,100396.19
2024-03-05T23:23:50.557Z,100398.81
2024-03-05T23:26:20.628Z,100397.94
2024-03-05T23:28:49.798Z,100396.16
2024-03-05T23:31:18.064Z,100402.34
2024-03-05T23:33:46.583Z,100398.81
2024-03-05T23:36:15.067Z,100407.56
2024-03-05T23:38:45.493Z,100407.53
2024-03-05T23:41:24.627Z,100408.44
2024-03-05T23:43:59.773Z,100406.66
2024-03-05T23:46:28.268Z,100402.25
2024-03-05T23:48:56.369Z,100404.06
2024-03-05T23:51:27.261Z,100414.66
2024-03-05T23:53:56.710Z,100416.44
2024-03-05T23:57:37.566Z,100421.78
